Time;durP1;ratioP1;P1;durP2;ratioP2;P2;SDS_P1;SDS_P2;PMS_P1;PMS_P2;Temp;Humidity;BMP_temperature;BMP_pressure;BME280_temperature;BME280_humidity;BME280_pressure;Samples;Min_cycle;Max_cycle;Signal;HPM_P1;HPM_P2
2021/08/30 00:02:20;;;;;;;12.27;11.05;;;;;;;;;;5115618;28;20031;-74
2021/08/30 00:04:46;;;;;;;12.00;10.90;;;;;;;;;;5115481;28;20043;-74
2021/08/30 00:07:12;;;;;;;14.40;12.50;;;;;;;;;;5115595;28;20059;-75
2021/08/30 00:09:38;;;;;;;12.45;11.15;;;;;;;;;;5115187;28;20383;-75
2021/08/30 00:12:05;;;;;;;13.75;12.35;;;;;;;;;;5115336;28;20036;-75
2021/08/30 00:14:31;;;;;;;13.75;12.45;;;;;;;;;;5115387;28;20035;-74
2021/08/30 00:16:58;;;;;;;13.30;12.00;;;;;;;;;;5115294;28;20035;-75
2021/08/30 00:19:24;;;;;;;13.32;11.88;;;;;;;;;;5115310;28;20475;-75
2021/08/30 00:21:50;;;;;;;12.38;11.00;;;;;;;;;;5115226;28;20036;-75
2021/08/30 00:24:22;;;;;;;12.00;10.80;;;;;;;;;;5115380;28;20049;-74
2021/08/30 00:26:49;;;;;;;13.02;11.73;;;;;;;;;;5115231;28;20035;-75
2021/08/30 00:29:15;;;;;;;12.70;11.40;;;;;;;;;;5115089;28;20030;-76
2021/08/30 00:31:41;;;;;;;12.25;10.95;;;;;;;;;;5113765;28;20395;-75
2021/08/30 00:34:07;;;;;;;15.07;12.75;;;;;;;;;;5114894;28;20032;-76
2021/08/30 00:36:34;;;;;;;12.77;11.38;;;;;;;;;;5114936;28;20054;-76
2021/08/30 00:39:00;;;;;;;14.05;12.65;;;;;;;;;;5114624;28;20490;-74
2021/08/30 00:41:26;;;;;;;13.07;11.68;;;;;;;;;;5114836;28;20019;-76
2021/08/30 00:43:53;;;;;;;12.95;11.63;;;;;;;;;;5114687;28;20051;-73
2021/08/30 00:46:19;;;;;;;12.98;11.68;;;;;;;;;;5114796;28;20030;-76
2021/08/30 00:48:46;;;;;;;12.90;11.57;;;;;;;;;;5114688;28;20030;-75
2021/08/30 00:51:14;;;;;;;13.10;11.80;;;;;;;;;;5114829;28;20490;-77
2021/08/30 00:53:40;;;;;;;13.27;11.88;;;;;;;;;;5114518;28;20032;-75
2021/08/30 00:56:06;;;;;;;13.63;11.65;;;;;;;;;;5114763;28;20052;-75
2021/08/30 00:58:32;;;;;;;14.45;12.95;;;;;;;;;;5113086;28;20023;-76
2021/08/30 01:00:58;;;;;;;14.57;12.15;;;;;;;;;;5114448;28;20027;-75
2021/08/30 01:03:24;;;;;;;13.35;11.52;;;;;;;;;;5114654;28;20030;-75
2021/08/30 01:05:53;;;;;;;12.60;11.23;;;;;;;;;;5114479;28;20054;-74
2021/08/30 01:08:27;;;;;;;13.07;11.73;;;;;;;;;;5114488;28;20038;-74
2021/08/30 01:11:00;;;;;;;14.40;12.65;;;;;;;;;;5114251;28;20032;-75
2021/08/30 01:13:30;;;;;;;13.25;11.95;;;;;;;;;;5114280;28;20379;-75
2021/08/30 01:15:56;;;;;;;14.80;11.75;;;;;;;;;;5114357;28;20062;-75
2021/08/30 01:18:24;;;;;;;14.93;12.27;;;;;;;;;;5114312;28;20518;-75
2021/08/30 01:20:59;;;;;;;13.27;11.88;;;;;;;;;;5114098;28;20100;-76
2021/08/30 01:23:28;;;;;;;13.25;11.80;;;;;;;;;;5113650;28;20016;-75
2021/08/30 01:25:54;;;;;;;14.10;11.48;;;;;;;;;;5113974;28;20466;-75
2021/08/30 01:28:22;;;;;;;13.60;11.70;;;;;;;;;;5114293;28;20031;-74
2021/08/30 01:30:49;;;;;;;13.93;12.02;;;;;;;;;;5112840;28;20031;-76
2021/08/30 01:33:15;;;;;;;14.93;12.95;;;;;;;;;;5113982;28;20028;-74
2021/08/30 01:35:42;;;;;;;15.00;12.45;;;;;;;;;;5114360;28;20028;-74
2021/08/30 01:38:09;;;;;;;13.52;11.77;;;;;;;;;;5113628;28;20051;-75
2021/08/30 01:40:37;;;;;;;13.25;11.75;;;;;;;;;;5113836;28;20036;-75
2021/08/30 01:43:03;;;;;;;12.32;10.88;;;;;;;;;;5113859;28;20027;-75
2021/08/30 01:45:30;;;;;;;11.55;10.35;;;;;;;;;;5114118;28;20034;-74
2021/08/30 01:47:58;;;;;;;13.65;11.93;;;;;;;;;;5113768;28;20023;-75
2021/08/30 01:50:25;;;;;;;12.57;10.93;;;;;;;;;;5113831;28;20069;-74
2021/08/30 01:52:52;;;;;;;12.00;10.70;;;;;;;;;;5113531;28;20035;-75
2021/08/30 02:03:22;;;;;;;11.80;10.60;;;;;;;;;;5114110;28;20038;-74
2021/08/30 02:06:07;;;;;;;12.20;10.90;;;;;;;;;;5112368;28;20065;-76
2021/08/30 02:08:33;;;;;;;;;;;;;;;;;;5114267;28;20026;-74
2021/08/30 02:11:01;;;;;;;11.55;9.98;;;;;;;;;;5113702;28;20266;-75
2021/08/30 02:13:29;;;;;;;11.40;9.57;;;;;;;;;;5113686;28;20497;-75
2021/08/30 02:15:56;;;;;;;12.63;10.30;;;;;;;;;;5113515;28;20028;-74
2021/08/30 02:18:22;;;;;;;12.20;10.48;;;;;;;;;;5113699;28;20023;-75
2021/08/30 02:20:51;;;;;;;13.13;10.35;;;;;;;;;;5113614;28;20036;-74
2021/08/30 02:23:20;;;;;;;11.73;10.35;;;;;;;;;;5113540;28;20498;-75
2021/08/30 02:25:48;;;;;;;11.18;9.98;;;;;;;;;;5113379;28;20106;-75
2021/08/30 02:28:14;;;;;;;11.10;9.52;;;;;;;;;;5113421;28;20098;-76
2021/08/30 02:30:40;;;;;;;13.38;10.75;;;;;;;;;;5113374;28;20374;-74
2021/08/30 02:33:09;;;;;;;11.20;10.00;;;;;;;;;;5114340;28;20550;-74
2021/08/30 02:35:37;;;;;;;10.43;8.98;;;;;;;;;;5117108;28;20451;-75
2021/08/30 02:38:04;;;;;;;11.07;9.88;;;;;;;;;;5116972;28;20399;-74
2021/08/30 02:40:30;;;;;;;10.77;9.27;;;;;;;;;;5117241;28;20509;-75
2021/08/30 02:42:57;;;;;;;10.20;9.18;;;;;;;;;;5117176;28;20027;-74
2021/08/30 02:45:24;;;;;;;11.20;8.38;;;;;;;;;;5117205;28;20027;-75
2021/08/30 02:47:51;;;;;;;9.70;8.30;;;;;;;;;;5117008;28;20036;-74
2021/08/30 02:50:17;;;;;;;12.30;9.85;;;;;;;;;;5117048;28;20015;-75
2021/08/30 02:52:44;;;;;;;12.77;10.50;;;;;;;;;;5116978;28;20497;-74
2021/08/30 02:55:10;;;;;;;9.80;8.52;;;;;;;;;;5116950;28;20543;-76
2021/08/30 02:57:37;;;;;;;10.02;9.02;;;;;;;;;;5116818;28;20027;-74
2021/08/30 03:00:04;;;;;;;9.50;8.50;;;;;;;;;;5116900;28;20472;-75
2021/08/30 03:02:30;;;;;;;11.07;9.18;;;;;;;;;;5116896;28;20084;-75
2021/08/30 03:04:57;;;;;;;10.43;9.32;;;;;;;;;;5116805;28;20096;-76
2021/08/30 03:07:25;;;;;;;9.60;8.63;;;;;;;;;;5116803;28;20025;-74
2021/08/30 03:09:51;;;;;;;9.43;8.20;;;;;;;;;;5116610;28;20553;-78
2021/08/30 03:12:18;;;;;;;9.55;8.32;;;;;;;;;;5116605;28;20027;-77
2021/08/30 03:14:46;;;;;;;9.65;8.65;;;;;;;;;;5116580;28;20115;-73
2021/08/30 03:17:14;;;;;;;10.07;8.88;;;;;;;;;;5116661;28;20368;-76
2021/08/30 03:19:41;;;;;;;10.60;9.52;;;;;;;;;;5116472;28;20031;-75
2021/08/30 03:22:09;;;;;;;9.95;8.77;;;;;;;;;;5116562;28;20031;-75
2021/08/30 03:24:36;;;;;;;11.05;8.95;;;;;;;;;;5116367;28;20032;-74
2021/08/30 03:27:03;;;;;;;9.50;8.30;;;;;;;;;;5116563;28;20496;-75
2021/08/30 03:29:29;;;;;;;9.57;8.27;;;;;;;;;;5116338;28;20072;-76
2021/08/30 03:31:55;;;;;;;11.80;9.00;;;;;;;;;;5116241;28;20106;-75
2021/08/30 03:34:22;;;;;;;9.55;8.02;;;;;;;;;;5116215;28;20040;-75
2021/08/30 03:36:49;;;;;;;10.35;9.00;;;;;;;;;;5116120;28;20080;-77
2021/08/30 03:39:16;;;;;;;11.05;9.35;;;;;;;;;;5115927;28;20055;-76
2021/08/30 03:41:44;;;;;;;10.80;8.63;;;;;;;;;;5116046;28;20026;-76
2021/08/30 03:44:11;;;;;;;11.70;9.20;;;;;;;;;;5115860;28;20028;-74
2021/08/30 03:46:40;;;;;;;12.38;10.30;;;;;;;;;;5115624;28;20019;-78
2021/08/30 03:49:06;;;;;;;10.27;9.15;;;;;;;;;;5115991;28;20046;-75
2021/08/30 03:51:34;;;;;;;10.82;9.40;;;;;;;;;;5115776;28;20024;-77
2021/08/30 03:54:00;;;;;;;10.23;8.90;;;;;;;;;;5115701;28;20043;-76
2021/08/30 03:56:27;;;;;;;10.10;8.55;;;;;;;;;;5115824;28;20051;-75
2021/08/30 03:58:53;;;;;;;8.98;7.97;;;;;;;;;;5115765;28;20436;-77
2021/08/30 04:01:24;;;;;;;9.68;8.38;;;;;;;;;;5114403;28;20028;-75
2021/08/30 04:03:52;;;;;;;9.98;8.43;;;;;;;;;;5115559;28;20031;-75
2021/08/30 04:06:19;;;;;;;10.20;8.35;;;;;;;;;;5115757;28;20374;-74
2021/08/30 04:08:45;;;;;;;9.48;8.55;;;;;;;;;;5115758;28;20030;-76
2021/08/30 04:11:13;;;;;;;8.70;7.82;;;;;;;;;;5115483;28;20112;-77
2021/08/30 04:13:41;;;;;;;9.43;8.35;;;;;;;;;;5115208;28;20027;-75
2021/08/30 04:16:07;;;;;;;10.25;8.52;;;;;;;;;;5115460;28;20020;-75
2021/08/30 04:18:34;;;;;;;9.30;7.85;;;;;;;;;;5115088;28;20031;-74
2021/08/30 04:21:00;;;;;;;8.95;7.97;;;;;;;;;;5115223;28;20035;-76
2021/08/30 04:23:26;;;;;;;10.55;8.55;;;;;;;;;;5115082;28;20020;-74
2021/08/30 04:25:52;;;;;;;9.13;7.00;;;;;;;;;;5115180;28;20028;-76
2021/08/30 04:28:18;;;;;;;8.68;7.43;;;;;;;;;;5115076;28;20028;-76
2021/08/30 04:30:44;;;;;;;9.00;6.82;;;;;;;;;;5115106;28;20030;-74
2021/08/30 04:33:12;;;;;;;8.75;7.85;;;;;;;;;;5114651;28;20023;-74
2021/08/30 04:35:39;;;;;;;9.10;7.22;;;;;;;;;;5114954;28;20031;-76
2021/08/30 04:38:05;;;;;;;10.13;8.50;;;;;;;;;;5114815;28;20047;-75
2021/08/30 04:40:32;;;;;;;8.82;7.35;;;;;;;;;;5114616;28;20439;-75
2021/08/30 04:42:58;;;;;;;9.10;6.70;;;;;;;;;;5114857;28;20024;-76
2021/08/30 04:45:24;;;;;;;10.05;8.48;;;;;;;;;;5114774;28;20035;-74
2021/08/30 04:47:50;;;;;;;8.85;7.95;;;;;;;;;;5114790;28;20030;-74
2021/08/30 04:50:17;;;;;;;9.98;8.90;;;;;;;;;;5114651;28;20394;-76
2021/08/30 04:52:43;;;;;;;9.57;6.97;;;;;;;;;;5114739;28;20032;-75
2021/08/30 04:55:11;;;;;;;9.13;7.95;;;;;;;;;;5114759;28;20039;-76
2021/08/30 04:57:37;;;;;;;8.57;7.55;;;;;;;;;;5113656;28;20034;-77
2021/08/30 05:00:04;;;;;;;12.30;10.43;;;;;;;;;;5114517;28;20036;-77
2021/08/30 05:02:30;;;;;;;9.65;8.65;;;;;;;;;;5114557;28;20486;-75
2021/08/30 05:04:58;;;;;;;8.25;7.35;;;;;;;;;;5113152;28;20027;-75
2021/08/30 05:07:24;;;;;;;8.20;7.07;;;;;;;;;;5114281;28;20020;-77
2021/08/30 05:09:50;;;;;;;7.53;6.18;;;;;;;;;;5114704;28;20355;-78
2021/08/30 05:12:16;;;;;;;7.70;6.57;;;;;;;;;;5114301;28;20411;-75
2021/08/30 05:14:42;;;;;;;7.50;6.60;;;;;;;;;;5113806;28;20032;-76
2021/08/30 05:17:09;;;;;;;7.82;6.43;;;;;;;;;;5114175;28;20027;-76
2021/08/30 05:19:35;;;;;;;6.70;5.85;;;;;;;;;;5112930;28;20474;-74
2021/08/30 05:22:01;;;;;;;7.32;6.63;;;;;;;;;;5111116;28;20115;-77
2021/08/30 05:24:27;;;;;;;8.23;5.72;;;;;;;;;;5111959;28;20046;-77
2021/08/30 05:26:53;;;;;;;7.47;6.28;;;;;;;;;;5112793;28;20046;-77
2021/08/30 05:29:19;;;;;;;12.45;7.28;;;;;;;;;;5105182;28;20028;-78
2021/08/30 05:31:45;;;;;;;6.22;5.60;;;;;;;;;;5099154;28;20015;-76
2021/08/30 05:34:11;;;;;;;6.65;5.95;;;;;;;;;;5102785;28;20032;-77
2021/08/30 05:36:37;;;;;;;7.35;5.97;;;;;;;;;;5112699;28;20125;-78
2021/08/30 05:39:04;;;;;;;7.35;6.55;;;;;;;;;;5112519;28;20048;-77
2021/08/30 05:41:30;;;;;;;7.65;6.30;;;;;;;;;;5112640;28;20020;-76
2021/08/30 05:43:56;;;;;;;10.90;8.07;;;;;;;;;;5125070;27;20034;-77
2021/08/30 05:46:22;;;;;;;7.00;5.90;;;;;;;;;;5112623;28;20066;-81
2021/08/30 05:48:49;;;;;;;7.55;6.38;;;;;;;;;;5111296;28;20028;-78
2021/08/30 05:51:15;;;;;;;6.35;5.22;;;;;;;;;;5112586;28;20172;-77
2021/08/30 05:53:42;;;;;;;15.95;6.07;;;;;;;;;;5111998;28;20035;-77
2021/08/30 05:56:08;;;;;;;6.60;5.30;;;;;;;;;;5112847;28;20027;-77
2021/08/30 05:58:38;;;;;;;8.52;6.57;;;;;;;;;;5112316;28;20028;-75
2021/08/30 06:01:05;;;;;;;7.50;5.82;;;;;;;;;;5112509;28;20038;-77
2021/08/30 06:03:31;;;;;;;6.63;5.93;;;;;;;;;;5112105;28;20513;-77
2021/08/30 06:05:57;;;;;;;8.70;6.70;;;;;;;;;;5112367;28;20028;-76
2021/08/30 06:08:24;;;;;;;7.10;5.40;;;;;;;;;;5117680;27;20111;-76
2021/08/30 06:10:50;;;;;;;11.80;6.65;;;;;;;;;;5137015;27;20055;-78
2021/08/30 06:13:16;;;;;;;7.22;5.40;;;;;;;;;;5136895;27;20080;-77
2021/08/30 06:15:42;;;;;;;5.70;5.20;;;;;;;;;;5136833;27;20035;-76
2021/08/30 06:18:09;;;;;;;7.50;5.75;;;;;;;;;;5133589;27;20058;-77
2021/08/30 06:20:35;;;;;;;6.78;5.55;;;;;;;;;;5106571;27;20476;-78
2021/08/30 06:23:01;;;;;;;7.13;6.40;;;;;;;;;;5116244;28;20482;-78
2021/08/30 06:25:27;;;;;;;6.28;5.68;;;;;;;;;;5115909;28;20478;-77
2021/08/30 06:27:53;;;;;;;6.90;5.97;;;;;;;;;;5114990;28;20478;-76
2021/08/30 06:30:19;;;;;;;7.15;5.63;;;;;;;;;;5116136;28;20020;-75
2021/08/30 06:32:46;;;;;;;7.45;4.95;;;;;;;;;;5115833;28;20474;-75
2021/08/30 06:35:12;;;;;;;5.82;4.70;;;;;;;;;;5116238;27;20047;-75
2021/08/30 06:37:38;;;;;;;6.20;5.30;;;;;;;;;;5115553;28;20051;-77
2021/08/30 06:40:08;;;;;;;6.40;5.05;;;;;;;;;;5116530;27;20051;-78
2021/08/30 06:42:34;;;;;;;6.88;4.90;;;;;;;;;;5135714;27;20091;-76
2021/08/30 06:45:00;;;;;;;4.97;4.47;;;;;;;;;;5135208;27;20027;-75
2021/08/30 06:47:26;;;;;;;4.93;3.83;;;;;;;;;;5136579;27;20030;-78
2021/08/30 06:49:53;;;;;;;5.20;4.50;;;;;;;;;;5136227;27;20083;-83
2021/08/30 06:52:19;;;;;;;25.42;18.85;;;;;;;;;;5136109;27;20027;-76
2021/08/30 06:54:45;;;;;;;8.80;6.50;;;;;;;;;;5135724;27;20027;-75
2021/08/30 06:57:11;;;;;;;4.47;4.07;;;;;;;;;;5136032;27;20033;-76
2021/08/30 06:59:37;;;;;;;5.05;4.55;;;;;;;;;;5123369;27;20356;-77
2021/08/30 07:02:03;;;;;;;6.32;4.10;;;;;;;;;;5114307;28;20394;-75
2021/08/30 07:04:29;;;;;;;4.32;3.50;;;;;;;;;;5115360;28;20031;-77
2021/08/30 07:06:55;;;;;;;4.47;3.97;;;;;;;;;;5115171;28;20032;-75
2021/08/30 07:09:23;;;;;;;6.13;4.80;;;;;;;;;;5131453;27;20016;-76
2021/08/30 07:11:50;;;;;;;5.30;3.92;;;;;;;;;;5118832;27;20089;-80
2021/08/30 07:14:16;;;;;;;4.90;3.80;;;;;;;;;;5115213;28;20078;-77
2021/08/30 07:16:42;;;;;;;4.10;3.70;;;;;;;;;;5120121;27;20057;-74
2021/08/30 07:19:08;;;;;;;5.28;3.78;;;;;;;;;;5131340;27;20035;-75
2021/08/30 07:21:35;;;;;;;4.22;3.78;;;;;;;;;;5121607;27;20090;-75
2021/08/30 07:24:01;;;;;;;4.75;3.22;;;;;;;;;;5094436;28;20837;-76
2021/08/30 07:26:27;;;;;;;4.43;4.03;;;;;;;;;;5094725;28;20047;-76
2021/08/30 07:28:53;;;;;;;4.22;3.45;;;;;;;;;;5094500;28;20038;-73
2021/08/30 07:31:19;;;;;;;4.18;3.78;;;;;;;;;;5094529;28;20111;-76
2021/08/30 07:33:46;;;;;;;4.82;3.65;;;;;;;;;;5094352;28;20028;-76
2021/08/30 07:36:12;;;;;;;3.88;3.17;;;;;;;;;;5094828;28;20028;-75
2021/08/30 07:38:39;;;;;;;3.58;3.28;;;;;;;;;;5094235;28;20090;-74
2021/08/30 07:41:05;;;;;;;4.50;4.10;;;;;;;;;;5094406;28;20036;-69
2021/08/30 07:43:31;;;;;;;6.55;4.20;;;;;;;;;;5094571;28;20024;-75
2021/08/30 07:46:00;;;;;;;4.32;3.28;;;;;;;;;;5093724;28;20082;-74
2021/08/30 07:48:26;;;;;;;4.22;3.83;;;;;;;;;;5094295;28;20109;-73
2021/08/30 07:50:52;;;;;;;4.75;4.07;;;;;;;;;;5094272;28;20024;-74
2021/08/30 07:53:18;;;;;;;4.00;3.47;;;;;;;;;;5093474;28;20024;-72
2021/08/30 07:55:45;;;;;;;20.70;18.08;;;;;;;;;;5094174;28;20044;-75
2021/08/30 07:58:15;;;;;;;6.00;3.40;;;;;;;;;;5094055;28;20036;-73
2021/08/30 08:00:41;;;;;;;5.13;3.30;;;;;;;;;;5093967;28;20028;-73
2021/08/30 08:03:07;;;;;;;4.88;3.63;;;;;;;;;;5092816;28;20032;-73
2021/08/30 08:05:33;;;;;;;3.40;3.08;;;;;;;;;;5093861;28;20145;-74
2021/08/30 08:08:01;;;;;;;3.72;2.80;;;;;;;;;;5093466;28;20020;-73
2021/08/30 08:10:27;;;;;;;26.80;24.58;;;;;;;;;;5104022;28;20059;-74
2021/08/30 08:12:53;;;;;;;5.72;4.18;;;;;;;;;;5114744;28;20470;-74
2021/08/30 08:15:20;;;;;;;4.03;3.05;;;;;;;;;;5113972;28;20032;-72
2021/08/30 08:17:46;;;;;;;3.78;2.95;;;;;;;;;;5114346;28;20106;-72
2021/08/30 08:20:13;;;;;;;7.18;3.20;;;;;;;;;;5113280;28;20130;-78
2021/08/30 08:22:39;;;;;;;3.88;2.92;;;;;;;;;;5113881;28;20063;-75
2021/08/30 08:25:07;;;;;;;3.33;3.00;;;;;;;;;;5113692;28;20019;-74
2021/08/30 08:27:34;;;;;;;3.28;2.90;;;;;;;;;;5114155;28;20016;-76
2021/08/30 08:30:00;;;;;;;3.25;2.95;;;;;;;;;;5113946;27;20061;-75
2021/08/30 08:32:26;;;;;;;4.57;2.80;;;;;;;;;;5113708;28;20020;-76
2021/08/30 08:34:52;;;;;;;4.45;2.63;;;;;;;;;;5113910;28;20039;-74
2021/08/30 08:37:19;;;;;;;2.78;2.47;;;;;;;;;;5113095;28;20067;-74
2021/08/30 08:39:45;;;;;;;4.53;2.22;;;;;;;;;;5113774;28;20474;-75
2021/08/30 08:42:11;;;;;;;7.78;2.58;;;;;;;;;;5114483;28;20031;-76
2021/08/30 08:44:37;;;;;;;3.83;2.35;;;;;;;;;;5114299;28;20027;-76
2021/08/30 08:47:03;;;;;;;6.90;4.57;;;;;;;;;;5114460;28;20401;-77
2021/08/30 08:49:31;;;;;;;2.75;2.55;;;;;;;;;;5111747;28;20104;-74
2021/08/30 08:51:57;;;;;;;4.80;3.28;;;;;;;;;;5113783;28;20031;-74
2021/08/30 08:54:23;;;;;;;3.88;3.15;;;;;;;;;;5113019;28;20222;-76
2021/08/30 08:56:49;;;;;;;3.88;2.40;;;;;;;;;;5113397;28;20028;-76
2021/08/30 08:59:15;;;;;;;4.13;3.00;;;;;;;;;;5112137;28;20035;-77
2021/08/30 09:01:41;;;;;;;3.85;2.90;;;;;;;;;;5101625;28;20471;-73
2021/08/30 09:04:08;;;;;;;4.93;2.75;;;;;;;;;;5112671;28;20020;-79
2021/08/30 09:06:40;;;;;;;2.47;2.20;;;;;;;;;;5113090;28;20027;-74
2021/08/30 09:09:08;;;;;;;3.70;2.75;;;;;;;;;;5110248;28;20043;-74
2021/08/30 09:11:35;;;;;;;2.67;2.47;;;;;;;;;;5113071;28;20107;-74
2021/08/30 09:14:02;;;;;;;4.25;2.40;;;;;;;;;;5106983;28;20032;-74
2021/08/30 09:16:28;;;;;;;2.72;2.10;;;;;;;;;;5100973;28;20059;-74
2021/08/30 09:19:05;;;;;;;3.53;3.10;;;;;;;;;;5092501;28;20068;-75
2021/08/30 09:21:31;;;;;;;3.20;2.58;;;;;;;;;;5099985;28;20062;-74
2021/08/30 09:23:57;;;;;;;4.75;2.95;;;;;;;;;;5112884;28;20020;-75
2021/08/30 09:26:23;;;;;;;3.75;2.13;;;;;;;;;;5112583;28;20028;-74
2021/08/30 09:29:08;;;;;;;3.20;2.65;;;;;;;;;;5112804;28;20413;-76
2021/08/30 09:31:37;;;;;;;2.83;2.40;;;;;;;;;;5112734;28;20081;-76
2021/08/30 09:34:03;;;;;;;5.57;2.90;;;;;;;;;;5112933;28;20134;-78
2021/08/30 09:36:29;;;;;;;3.78;2.35;;;;;;;;;;5112565;28;20177;-76
2021/08/30 09:38:55;;;;;;;2.72;2.10;;;;;;;;;;5112368;28;20054;-74
2021/08/30 09:41:24;;;;;;;4.38;3.15;;;;;;;;;;5104774;28;20080;-77
2021/08/30 09:44:00;;;;;;;15.63;13.95;;;;;;;;;;5091511;28;20047;-76
2021/08/30 09:46:31;;;;;;;4.00;2.47;;;;;;;;;;5091764;28;20036;-74
2021/08/30 09:49:01;;;;;;;3.22;2.28;;;;;;;;;;5099225;28;20478;-75
2021/08/30 09:51:28;;;;;;;2.45;1.88;;;;;;;;;;5107399;28;20036;-74
2021/08/30 09:53:54;;;;;;;4.38;3.25;;;;;;;;;;5091702;28;20083;-75
2021/08/30 09:56:22;;;;;;;4.05;2.70;;;;;;;;;;5097822;28;20100;-72
2021/08/30 09:58:50;;;;;;;4.35;2.55;;;;;;;;;;5112681;28;20034;-73
2021/08/30 10:01:16;;;;;;;4.78;3.45;;;;;;;;;;5112045;28;20398;-74
2021/08/30 10:03:43;;;;;;;3.28;2.60;;;;;;;;;;5112302;28;20027;-75
2021/08/30 10:06:09;;;;;;;10.50;3.03;;;;;;;;;;5112563;28;20032;-75
2021/08/30 10:08:37;;;;;;;3.33;2.58;;;;;;;;;;5112160;28;20065;-74
2021/08/30 10:11:03;;;;;;;5.13;2.40;;;;;;;;;;5111906;28;20112;-75
2021/08/30 10:13:29;;;;;;;4.00;2.45;;;;;;;;;;5111897;28;20080;-74
2021/08/30 10:15:55;;;;;;;3.95;2.40;;;;;;;;;;5112456;28;20073;-73
2021/08/30 10:18:21;;;;;;;3.95;2.58;;;;;;;;;;5111965;28;20139;-76
2021/08/30 10:20:50;;;;;;;4.63;2.40;;;;;;;;;;5112061;28;20464;-74
2021/08/30 10:23:20;;;;;;;2.60;2.08;;;;;;;;;;5112317;28;20562;-74
2021/08/30 10:25:58;;;;;;;4.20;2.35;;;;;;;;;;5105347;28;20366;-74
2021/08/30 10:28:33;;;;;;;2.70;2.33;;;;;;;;;;5111637;28;20063;-74
2021/08/30 10:30:59;;;;;;;3.67;2.30;;;;;;;;;;5111780;28;20032;-74
2021/08/30 10:33:35;;;;;;;3.13;1.85;;;;;;;;;;5112301;28;20388;-75
2021/08/30 10:36:10;;;;;;;5.07;3.67;;;;;;;;;;5110851;28;20108;-75
2021/08/30 10:38:36;;;;;;;3.40;2.45;;;;;;;;;;5111536;28;20081;-74
2021/08/30 10:41:13;;;;;;;5.43;4.13;;;;;;;;;;5106834;28;20387;-74
2021/08/30 10:43:42;;;;;;;2.33;2.00;;;;;;;;;;5103295;28;20020;-74
2021/08/30 10:46:13;;;;;;;2.67;1.92;;;;;;;;;;5101231;28;20028;-75
2021/08/30 10:48:40;;;;;;;5.53;4.97;;;;;;;;;;5111947;28;20055;-74
2021/08/30 10:51:33;;;;;;;6.05;4.00;;;;;;;;;;5110407;28;20076;-75
2021/08/30 10:54:00;;;;;;;5.65;2.97;;;;;;;;;;5090901;28;20043;-74
2021/08/30 10:56:27;;;;;;;2.95;2.60;;;;;;;;;;5095177;28;20386;-75
2021/08/30 10:58:56;;;;;;;3.92;2.80;;;;;;;;;;5095102;28;20036;-74
2021/08/30 11:01:22;;;;;;;4.53;2.90;;;;;;;;;;5095328;28;20159;-75
2021/08/30 11:03:58;;;;;;;5.53;4.20;;;;;;;;;;5095032;28;20020;-76
2021/08/30 11:06:24;;;;;;;3.78;2.80;;;;;;;;;;5095285;28;20032;-75
2021/08/30 11:08:51;;;;;;;4.68;4.03;;;;;;;;;;5094882;28;20035;-74
2021/08/30 11:11:18;;;;;;;3.88;2.67;;;;;;;;;;5095990;28;20526;-75
2021/08/30 11:13:56;;;;;;;4.70;2.60;;;;;;;;;;5110235;28;20042;-73
2021/08/30 11:16:23;;;;;;;3.03;2.40;;;;;;;;;;5111625;28;20020;-73
2021/08/30 11:19:08;;;;;;;5.50;2.65;;;;;;;;;;5094545;28;20438;-74
2021/08/30 11:21:50;;;;;;;3.67;2.67;;;;;;;;;;5103013;28;20024;-74
2021/08/30 11:24:27;;;;;;;3.60;2.88;;;;;;;;;;5114832;28;20367;-74
2021/08/30 11:26:54;;;;;;;3.42;2.33;;;;;;;;;;5114566;28;20466;-75
2021/08/30 11:29:21;;;;;;;3.50;2.72;;;;;;;;;;5115324;28;20026;-72
2021/08/30 11:31:47;;;;;;;3.92;2.63;;;;;;;;;;5114443;28;20032;-74
2021/08/30 11:34:42;;;;;;;2.78;2.45;;;;;;;;;;5114470;28;20100;-74
2021/08/30 11:37:13;;;;;;;4.40;2.70;;;;;;;;;;5100261;28;20028;-75
2021/08/30 11:39:40;;;;;;;2.30;1.90;;;;;;;;;;5096710;28;20097;-76
2021/08/30 11:42:12;;;;;;;3.33;2.83;;;;;;;;;;5093873;28;20028;-74
2021/08/30 11:44:39;;;;;;;4.07;2.25;;;;;;;;;;5093915;28;20146;-75
2021/08/30 11:47:06;;;;;;;4.20;2.60;;;;;;;;;;5093575;28;20028;-75
2021/08/30 11:49:33;;;;;;;4.05;2.20;;;;;;;;;;5094378;28;20020;-75
2021/08/30 11:52:01;;;;;;;2.58;2.22;;;;;;;;;;5093892;28;20467;-74
2021/08/30 11:54:45;;;;;;;4.13;2.28;;;;;;;;;;5106008;28;20042;-73
2021/08/30 11:57:13;;;;;;;3.92;2.97;;;;;;;;;;5098924;28;20024;-75
2021/08/30 11:59:47;;;;;;;3.00;2.60;;;;;;;;;;5114490;28;20482;-75
2021/08/30 12:02:15;;;;;;;2.45;2.20;;;;;;;;;;5110629;28;20519;-74
2021/08/30 12:04:41;;;;;;;2.53;2.03;;;;;;;;;;5098796;28;20031;-74
2021/08/30 12:07:11;;;;;;;3.72;2.10;;;;;;;;;;5092782;28;20032;-73
2021/08/30 12:09:40;;;;;;;2.67;1.98;;;;;;;;;;5096376;28;20031;-75
2021/08/30 12:12:34;;;;;;;2.50;1.98;;;;;;;;;;5113540;28;20023;-74
2021/08/30 12:15:06;;;;;;;2.00;1.80;;;;;;;;;;5103405;28;20038;-75
2021/08/30 12:17:36;;;;;;;4.72;2.67;;;;;;;;;;5103686;27;20080;-74
2021/08/30 12:20:06;;;;;;;4.90;2.72;;;;;;;;;;5113598;28;20055;-74
2021/08/30 12:22:34;;;;;;;3.45;2.03;;;;;;;;;;5114000;27;20031;-74
2021/08/30 12:25:10;;;;;;;4.50;1.80;;;;;;;;;;5113684;28;20032;-74
2021/08/30 12:27:38;;;;;;;3.03;1.60;;;;;;;;;;5113940;28;20480;-73
2021/08/30 12:30:28;;;;;;;3.65;2.00;;;;;;;;;;5111919;28;20047;-75
2021/08/30 12:32:55;;;;;;;3.20;1.60;;;;;;;;;;5105832;28;20039;-74
2021/08/30 12:35:26;;;;;;;4.07;1.92;;;;;;;;;;5100645;28;20039;-74
2021/08/30 12:37:57;;;;;;;3.00;2.03;;;;;;;;;;5092806;28;20048;-73
2021/08/30 12:40:23;;;;;;;3.55;1.70;;;;;;;;;;5093176;28;20036;-74
2021/08/30 12:42:50;;;;;;;3.13;1.90;;;;;;;;;;5093018;28;20108;-72
2021/08/30 12:45:17;;;;;;;2.15;1.95;;;;;;;;;;5091718;28;20030;-74
2021/08/30 12:47:43;;;;;;;3.33;2.05;;;;;;;;;;5095911;28;20032;-73
2021/08/30 12:50:10;;;;;;;3.38;2.90;;;;;;;;;;5102870;28;20038;-74
2021/08/30 12:52:36;;;;;;;2.17;1.83;;;;;;;;;;5095476;28;20058;-74
2021/08/30 12:55:06;;;;;;;2.63;1.95;;;;;;;;;;5093001;28;20060;-74
2021/08/30 12:57:32;;;;;;;3.38;1.98;;;;;;;;;;5092772;28;20026;-76
2021/08/30 12:59:58;;;;;;;2.85;2.13;;;;;;;;;;5104562;28;20035;-74
2021/08/30 13:02:24;;;;;;;2.85;2.00;;;;;;;;;;5094539;28;20028;-75
2021/08/30 13:04:50;;;;;;;4.15;2.17;;;;;;;;;;5093511;28;20069;-75
2021/08/30 13:07:17;;;;;;;3.55;2.05;;;;;;;;;;5112801;28;20024;-73
2021/08/30 13:09:43;;;;;;;3.00;1.88;;;;;;;;;;5113195;28;20425;-75
2021/08/30 13:12:09;;;;;;;4.18;2.38;;;;;;;;;;5112390;28;20088;-73
2021/08/30 13:14:35;;;;;;;5.97;4.47;;;;;;;;;;5106295;28;20169;-76
2021/08/30 13:17:01;;;;;;;6.00;4.82;;;;;;;;;;5092307;28;20020;-73
2021/08/30 13:19:27;;;;;;;11.55;7.57;;;;;;;;;;5090134;28;20020;-74
2021/08/30 13:21:53;;;;;;;4.68;2.17;;;;;;;;;;5102865;28;20037;-74
2021/08/30 13:24:20;;;;;;;3.80;2.90;;;;;;;;;;5112772;28;20141;-77
2021/08/30 13:26:46;;;;;;;2.40;2.08;;;;;;;;;;5113146;28;20034;-73
2021/08/30 13:29:12;;;;;;;2.65;2.00;;;;;;;;;;5112826;28;20015;-74
2021/08/30 13:31:38;;;;;;;3.30;1.92;;;;;;;;;;5113166;28;20023;-74
2021/08/30 13:34:04;;;;;;;2.40;2.13;;;;;;;;;;5113180;28;20382;-74
2021/08/30 13:36:30;;;;;;;2.38;2.05;;;;;;;;;;5112550;28;20524;-74
2021/08/30 13:38:56;;;;;;;2.10;1.80;;;;;;;;;;5112653;28;20062;-74
2021/08/30 13:41:22;;;;;;;2.67;1.88;;;;;;;;;;5112949;28;20028;-73
2021/08/30 13:43:48;;;;;;;2.67;2.40;;;;;;;;;;5112663;28;20024;-74
2021/08/30 13:46:15;;;;;;;3.70;2.05;;;;;;;;;;5112732;28;20028;-75
2021/08/30 13:48:41;;;;;;;4.72;2.97;;;;;;;;;;5113107;27;20029;-73
2021/08/30 13:51:11;;;;;;;2.60;2.03;;;;;;;;;;5111628;28;20106;-73
2021/08/30 13:53:38;;;;;;;2.53;2.03;;;;;;;;;;5112726;28;20024;-73
2021/08/30 13:56:04;;;;;;;4.50;2.28;;;;;;;;;;5112953;28;20055;-75
2021/08/30 13:58:30;;;;;;;3.03;2.20;;;;;;;;;;5110068;28;20067;-74
2021/08/30 14:00:56;;;;;;;5.38;2.83;;;;;;;;;;5092494;28;20024;-76
2021/08/30 14:03:22;;;;;;;3.17;2.10;;;;;;;;;;5095179;28;20027;-74
2021/08/30 14:05:48;;;;;;;2.97;2.47;;;;;;;;;;5111264;28;20028;-73
2021/08/30 14:08:14;;;;;;;2.75;2.30;;;;;;;;;;5111487;28;20511;-74
2021/08/30 14:10:41;;;;;;;3.53;2.83;;;;;;;;;;5112401;28;20028;-75
2021/08/30 14:13:07;;;;;;;3.72;2.22;;;;;;;;;;5112779;28;20032;-76
2021/08/30 14:15:35;;;;;;;3.80;2.40;;;;;;;;;;5093827;28;20533;-73
2021/08/30 14:18:02;;;;;;;2.97;2.67;;;;;;;;;;5092306;28;20081;-73
2021/08/30 14:20:28;;;;;;;3.85;2.95;;;;;;;;;;5091598;28;20035;-77
2021/08/30 14:22:54;;;;;;;2.63;2.42;;;;;;;;;;5092319;28;20097;-73
2021/08/30 14:25:20;;;;;;;2.75;2.30;;;;;;;;;;5092352;28;20030;-74
2021/08/30 14:27:47;;;;;;;2.83;2.25;;;;;;;;;;5091681;28;20020;-73
2021/08/30 14:30:15;;;;;;;4.18;2.78;;;;;;;;;;5095366;28;20036;-74
2021/08/30 14:32:41;;;;;;;3.75;2.38;;;;;;;;;;5096032;28;20535;-73
2021/08/30 14:35:07;;;;;;;4.38;2.85;;;;;;;;;;5095716;28;20062;-74
2021/08/30 14:37:34;;;;;;;4.13;2.95;;;;;;;;;;5094259;28;20449;-73
2021/08/30 14:40:00;;;;;;;4.22;2.67;;;;;;;;;;5096076;28;20047;-77
2021/08/30 14:42:26;;;;;;;4.43;3.15;;;;;;;;;;5095573;28;20032;-73
2021/08/30 14:44:52;;;;;;;3.33;2.65;;;;;;;;;;5095758;28;20497;-75
2021/08/30 14:47:18;;;;;;;3.20;2.50;;;;;;;;;;5095116;28;20035;-75
2021/08/30 14:49:44;;;;;;;3.92;2.58;;;;;;;;;;5096743;28;20028;-76